| Date | Time | Temp. (oF) | Dew Point (oF) | Rel. Hum. (%) | Press. (in.) | Wind Dir. | Wind Speed (mph) | Hourly Rainfall (in.) |
|
|---|---|---|---|---|---|---|---|---|---|
| 1 | 07/09 | 00:00 | 67 | 65 | 94 | 30.01 | W | 0 | 0.00 |
| 2 | 07/08 | 23:00 | 69 | 66 | 91 | 30.01 | NW | 0 | 0.00 |
| 3 | 07/08 | 22:00 | 71 | 66 | 87 | 29.99 | NW | 0 | 0.00 |
| 4 | 07/08 | 21:00 | 73 | 67 | 83 | 29.98 | NW | 0 | 0.00 |
| 5 | 07/08 | 20:00 | 75 | 66 | 76 | 29.95 | N | 1 | 0.00 |
| 6 | 07/08 | 19:00 | 75 | 66 | 76 | 29.95 | NNW | 4 | 0.00 |
| 7 | 07/08 | 18:00 | 75 | 67 | 77 | 29.94 | WNW | 5 | 0.00 |
| 8 | 07/08 | 17:00 | 76 | 68 | 78 | 29.95 | NNW | 8 | 0.00 |
| 9 | 07/08 | 16:00 | 74 | 67 | 80 | 29.95 | N | 3 | 0.00 |
| 10 | 07/08 | 15:00 | 74 | 67 | 81 | 29.96 | N | 3 | 0.00 |
| 11 | 07/08 | 14:00 | 72 | 67 | 86 | 29.96 | NW | 5 | 0.00 |
| 12 | 07/08 | 13:00 | 70 | 67 | 93 | 29.98 | NNW | 8 | 0.00 |
| 13 | 07/08 | 12:00 | 69 | 68 | 100 | 29.96 | NNE | 10 | 0.00 |
| 14 | 07/08 | 11:00 | 65 | 64 | 100 | 29.94 | ENE | 12 | 0.01 |
| 15 | 07/08 | 10:00 | 64 | 63 | 100 | 29.96 | E | 4 | 0.11 |
| 16 | 07/08 | 09:00 | 63 | 63 | 100 | 30.00 | NE | 8 | 0.33 |
| 17 | 07/08 | 08:00 | 63 | 63 | 100 | 29.99 | ENE | 13 | 0.42 |
| 18 | 07/08 | 07:00 | 64 | 63 | 100 | 30.01 | NNW | 10 | 0.25 |
| 19 | 07/08 | 06:00 | 64 | 63 | 100 | 29.99 | ENE | 4 | 0.21 |
| 20 | 07/08 | 05:00 | 64 | 63 | 100 | 30.00 | NNE | 6 | 0.16 |
| 21 | 07/08 | 04:00 | 65 | 64 | 100 | 30.00 | NE | 5 | 0.18 |
| 22 | 07/08 | 03:00 | 65 | 64 | 100 | 30.04 | E | 7 | 0.11 |
| 23 | 07/08 | 02:00 | 66 | 66 | 100 | 30.07 | E | 3 | 0.03 |
| 24 | 07/08 | 01:00 | 67 | 67 | 100 | 30.06 | E | 6 | 0.03 |